Time;durP1;ratioP1;P1;durP2;ratioP2;P2;SDS_P1;SDS_P2;PMS_P1;PMS_P2;Temp;Humidity;BMP_temperature;BMP_pressure;BME280_temperature;BME280_humidity;BME280_pressure;Samples;Min_cycle;Max_cycle;Signal;HPM_P1;HPM_P2
2022/11/16 00:02:27;;;;;;;477.33;172.40;;;;;;;;;;6228908;28;20148;-61
2022/11/16 00:05:28;;;;;;;466.27;170.10;;;;;;;;;;6229376;28;20049;-61
2022/11/16 00:08:30;;;;;;;459.85;167.45;;;;;;;;;;6226588;28;20057;-61
2022/11/16 00:11:31;;;;;;;462.83;167.77;;;;;;;;;;6217764;28;20057;-60
2022/11/16 00:14:34;;;;;;;482.08;171.40;;;;;;;;;;6218483;28;20042;-60
2022/11/16 00:17:35;;;;;;;498.02;176.30;;;;;;;;;;6230508;28;20065;-62
2022/11/16 00:20:37;;;;;;;494.80;173.02;;;;;;;;;;6244006;28;20400;-62
2022/11/16 00:23:38;;;;;;;494.27;172.38;;;;;;;;;;6241973;28;20064;-64
2022/11/16 00:26:39;;;;;;;477.38;166.85;;;;;;;;;;6242629;28;20038;-64
2022/11/16 00:29:40;;;;;;;479.67;163.30;;;;;;;;;;6243605;28;20124;-62
2022/11/16 00:32:40;;;;;;;469.65;162.77;;;;;;;;;;6241891;28;20454;-61
2022/11/16 00:35:41;;;;;;;460.35;155.10;;;;;;;;;;6243368;28;20041;-64
2022/11/16 00:38:42;;;;;;;460.88;159.35;;;;;;;;;;6243242;28;20038;-61
2022/11/16 00:41:43;;;;;;;456.38;158.98;;;;;;;;;;6242509;28;20048;-62
2022/11/16 00:44:44;;;;;;;442.92;155.10;;;;;;;;;;6242185;28;20042;-61
2022/11/16 00:47:44;;;;;;;429.58;152.95;;;;;;;;;;6245944;28;20033;-61
2022/11/16 00:50:46;;;;;;;444.67;157.32;;;;;;;;;;6243050;28;20045;-61
2022/11/16 00:53:47;;;;;;;424.65;153.30;;;;;;;;;;6241413;28;20049;-60
2022/11/16 00:56:47;;;;;;;414.88;153.63;;;;;;;;;;6248983;28;20061;-62
2022/11/16 00:59:48;;;;;;;410.15;149.93;;;;;;;;;;6242689;28;20045;-61
2022/11/16 01:02:48;;;;;;;423.65;151.98;;;;;;;;;;6241095;28;20049;-60
2022/11/16 01:05:49;;;;;;;437.90;154.95;;;;;;;;;;6242532;28;20049;-61
2022/11/16 01:08:50;;;;;;;433.52;154.88;;;;;;;;;;6247884;28;20094;-61
2022/11/16 01:12:11;;;;;;;440.25;155.07;;;;;;;;;;6241671;28;20514;-61
2022/11/16 01:15:12;;;;;;;449.10;157.50;;;;;;;;;;6241338;28;20041;-61
2022/11/16 01:18:13;;;;;;;422.87;149.77;;;;;;;;;;6242141;28;20068;-61
2022/11/16 01:21:13;;;;;;;432.58;151.82;;;;;;;;;;6247321;28;20079;-60
2022/11/16 01:24:14;;;;;;;422.13;148.55;;;;;;;;;;6241670;28;20511;-62
2022/11/16 01:27:15;;;;;;;438.08;155.93;;;;;;;;;;6246473;28;20052;-61
2022/11/16 01:30:16;;;;;;;433.20;149.70;;;;;;;;;;6243612;28;20371;-61
2022/11/16 01:33:16;;;;;;;428.40;151.40;;;;;;;;;;6240498;28;20044;-61
2022/11/16 01:36:17;;;;;;;417.83;153.15;;;;;;;;;;6241881;28;20559;-61
2022/11/16 01:39:18;;;;;;;440.23;157.43;;;;;;;;;;6242069;28;20042;-61
2022/11/16 01:42:22;;;;;;;408.67;152.65;;;;;;;;;;6241281;28;20075;-62
2022/11/16 01:45:42;;;;;;;429.27;154.45;;;;;;;;;;6241207;28;20107;-61
2022/11/16 01:48:44;;;;;;;441.83;158.15;;;;;;;;;;6241720;28;20037;-62
2022/11/16 01:51:48;;;;;;;419.53;149.77;;;;;;;;;;6241488;28;20477;-61
2022/11/16 01:54:51;;;;;;;435.02;156.10;;;;;;;;;;6241039;28;20055;-62
2022/11/16 01:57:52;;;;;;;419.88;151.05;;;;;;;;;;6241215;28;20400;-61
2022/11/16 02:00:52;;;;;;;410.70;143.93;;;;;;;;;;6241326;28;20049;-60
2022/11/16 02:03:53;;;;;;;418.98;148.50;;;;;;;;;;6241381;28;20045;-61
2022/11/16 02:06:56;;;;;;;415.90;145.93;;;;;;;;;;6254589;28;20040;-60
2022/11/16 02:10:09;;;;;;;410.55;140.88;;;;;;;;;;6251698;28;20053;-61
2022/11/16 02:13:26;;;;;;;418.98;151.60;;;;;;;;;;6248198;28;20056;-61
2022/11/16 02:16:26;;;;;;;418.63;148.10;;;;;;;;;;6255219;28;20053;-60
2022/11/16 02:19:53;;;;;;;395.70;145.02;;;;;;;;;;6254188;28;20099;-61
2022/11/16 02:23:14;;;;;;;406.77;143.68;;;;;;;;;;6258866;28;20080;-61
2022/11/16 02:26:52;;;;;;;406.10;140.70;;;;;;;;;;6256270;28;20057;-60
2022/11/16 02:29:54;;;;;;;426.20;151.88;;;;;;;;;;6257321;28;20052;-60
2022/11/16 02:33:07;;;;;;;446.45;158.15;;;;;;;;;;6253790;28;20132;-62
2022/11/16 02:36:13;;;;;;;437.52;158.15;;;;;;;;;;6263431;28;20055;-62
2022/11/16 02:39:18;;;;;;;444.70;162.40;;;;;;;;;;6252518;28;20399;-61
2022/11/16 02:42:29;;;;;;;432.88;155.85;;;;;;;;;;6253962;28;20052;-61
2022/11/16 02:45:32;;;;;;;422.25;153.38;;;;;;;;;;6261614;28;20430;-61
2022/11/16 02:48:37;;;;;;;435.23;151.32;;;;;;;;;;6266068;28;20091;-61
2022/11/16 02:51:39;;;;;;;406.73;144.80;;;;;;;;;;6255611;28;20067;-61
2022/11/16 02:54:40;;;;;;;428.05;144.90;;;;;;;;;;6254188;28;20088;-61
2022/11/16 02:57:55;;;;;;;413.13;142.70;;;;;;;;;;6252987;28;20065;-61
2022/11/16 03:01:07;;;;;;;418.75;145.40;;;;;;;;;;6253371;28;20042;-60
2022/11/16 03:04:14;;;;;;;;;;;;;;;;;;6267126;28;20130;-62
2022/11/16 03:07:19;;;;;;;435.50;154.43;;;;;;;;;;6260080;28;20024;-61
2022/11/16 03:13:41;;;;;;;430.83;152.60;;;;;;;;;;6256602;28;20060;-61
2022/11/16 03:16:46;;;;;;;427.52;155.90;;;;;;;;;;6251196;28;20057;-61
2022/11/16 03:20:00;;;;;;;431.50;159.55;;;;;;;;;;6251301;28;20126;-61
2022/11/16 03:23:05;;;;;;;415.17;150.15;;;;;;;;;;6247179;28;20135;-60
2022/11/16 03:26:07;;;;;;;393.77;136.82;;;;;;;;;;6251904;28;20072;-61
2022/11/16 03:29:17;;;;;;;382.63;137.10;;;;;;;;;;6258120;28;20067;-62
2022/11/16 03:32:23;;;;;;;374.05;133.15;;;;;;;;;;6253409;28;20413;-61
2022/11/16 03:35:34;;;;;;;393.65;135.15;;;;;;;;;;6259272;28;20061;-61
2022/11/16 03:38:37;;;;;;;380.50;132.25;;;;;;;;;;6254751;28;20125;-62
2022/11/16 03:41:42;;;;;;;398.60;138.40;;;;;;;;;;6254067;28;20060;-61
2022/11/16 03:44:45;;;;;;;404.38;142.77;;;;;;;;;;6253178;28;20046;-61
2022/11/16 03:47:46;;;;;;;395.20;139.10;;;;;;;;;;6259291;28;20138;-61
2022/11/16 03:50:46;;;;;;;401.33;140.93;;;;;;;;;;6258757;28;20034;-60
2022/11/16 03:53:47;;;;;;;398.42;140.43;;;;;;;;;;6271137;28;20068;-61
2022/11/16 03:56:47;;;;;;;396.95;141.93;;;;;;;;;;6254657;28;20057;-62
2022/11/16 03:59:48;;;;;;;401.67;139.40;;;;;;;;;;6252760;28;20648;-61
2022/11/16 04:02:48;;;;;;;399.65;144.27;;;;;;;;;;6270291;28;20395;-61
2022/11/16 04:25:48;;;;;;;447.45;163.85;;;;;;;;;;6246858;28;20036;-61
2022/11/16 04:28:49;;;;;;;423.73;152.60;;;;;;;;;;6252624;28;20033;-61
2022/11/16 04:38:28;;;;;;;401.33;149.43;;;;;;;;;;6242751;28;20111;-62
2022/11/16 04:48:09;;;;;;;390.38;140.63;;;;;;;;;;6250661;28;20049;-61
2022/11/16 04:51:10;;;;;;;414.63;150.30;;;;;;;;;;6264742;28;20037;-62
2022/11/16 04:54:10;;;;;;;425.70;150.18;;;;;;;;;;6253476;28;20046;-61
2022/11/16 04:57:11;;;;;;;424.70;156.18;;;;;;;;;;6254238;28;20049;-61
2022/11/16 05:00:12;;;;;;;431.10;169.63;;;;;;;;;;6249748;28;20504;-62
2022/11/16 05:03:13;;;;;;;408.10;147.98;;;;;;;;;;6250246;28;20057;-61
2022/11/16 05:06:13;;;;;;;413.75;147.60;;;;;;;;;;6251618;28;20406;-61
2022/11/16 05:09:14;;;;;;;408.83;146.35;;;;;;;;;;6256314;28;20556;-61
2022/11/16 05:12:17;;;;;;;398.52;147.45;;;;;;;;;;6255575;28;20045;-60
2022/11/16 05:15:18;;;;;;;406.83;145.80;;;;;;;;;;6252328;28;20056;-61
2022/11/16 05:18:19;;;;;;;421.75;150.02;;;;;;;;;;6248405;28;20049;-60
2022/11/16 05:21:19;;;;;;;403.83;143.25;;;;;;;;;;6251305;28;20089;-61
2022/11/16 05:24:35;;;;;;;441.75;164.95;;;;;;;;;;6246100;28;20447;-60
2022/11/16 05:27:36;;;;;;;409.30;154.63;;;;;;;;;;6248928;28;20044;-61
2022/11/16 05:30:37;;;;;;;418.60;157.83;;;;;;;;;;6248696;28;20147;-61
2022/11/16 05:33:37;;;;;;;441.20;165.07;;;;;;;;;;6250402;28;20464;-61
2022/11/16 05:36:38;;;;;;;426.20;160.07;;;;;;;;;;6247466;28;20053;-61
2022/11/16 05:39:39;;;;;;;431.85;153.73;;;;;;;;;;6263671;28;20139;-62
2022/11/16 05:42:40;;;;;;;434.20;158.00;;;;;;;;;;6266948;28;20033;-60
2022/11/16 05:45:42;;;;;;;437.58;160.40;;;;;;;;;;6267110;28;20080;-61
2022/11/16 05:48:42;;;;;;;432.52;152.77;;;;;;;;;;6265501;28;20040;-61
2022/11/16 05:51:44;;;;;;;410.65;146.73;;;;;;;;;;6260384;28;20061;-62
2022/11/16 05:54:44;;;;;;;426.67;152.65;;;;;;;;;;6245349;28;20055;-62
2022/11/16 05:57:45;;;;;;;438.27;158.70;;;;;;;;;;6266705;28;20049;-61
2022/11/16 06:00:46;;;;;;;431.88;162.68;;;;;;;;;;6250429;28;20068;-61
2022/11/16 06:03:47;;;;;;;446.15;163.43;;;;;;;;;;6267071;28;20041;-61
2022/11/16 06:06:47;;;;;;;442.10;156.60;;;;;;;;;;6263480;28;20049;-61
2022/11/16 06:09:48;;;;;;;458.15;167.73;;;;;;;;;;6255801;28;20540;-61
2022/11/16 06:12:49;;;;;;;439.92;156.55;;;;;;;;;;6248945;28;20048;-61
2022/11/16 06:15:49;;;;;;;458.27;165.82;;;;;;;;;;6248388;28;20057;-60
2022/11/16 06:18:50;;;;;;;452.95;162.68;;;;;;;;;;6248160;28;20078;-61
2022/11/16 06:21:51;;;;;;;449.45;163.85;;;;;;;;;;6243010;28;20508;-62
2022/11/16 06:24:51;;;;;;;459.30;168.75;;;;;;;;;;6246337;28;20045;-62
2022/11/16 06:27:52;;;;;;;491.00;180.18;;;;;;;;;;6247325;28;20049;-61
2022/11/16 06:30:53;;;;;;;479.85;177.35;;;;;;;;;;6249012;28;20048;-62
2022/11/16 06:33:53;;;;;;;478.63;176.88;;;;;;;;;;6244948;28;20049;-61
2022/11/16 06:36:54;;;;;;;459.10;161.30;;;;;;;;;;6248339;28;20037;-61
2022/11/16 06:39:54;;;;;;;465.48;164.35;;;;;;;;;;6248601;28;20454;-61
2022/11/16 06:42:56;;;;;;;424.63;149.05;;;;;;;;;;6249659;28;20057;-61
2022/11/16 06:45:57;;;;;;;378.23;137.73;;;;;;;;;;6249495;28;20046;-61
2022/11/16 06:48:57;;;;;;;387.58;133.93;;;;;;;;;;6248661;28;20116;-61
2022/11/16 06:51:58;;;;;;;367.02;125.53;;;;;;;;;;6247162;28;20626;-61
2022/11/16 06:54:58;;;;;;;360.75;128.70;;;;;;;;;;6249964;28;20048;-61
2022/11/16 06:57:59;;;;;;;356.02;125.82;;;;;;;;;;6252309;28;20061;-61
2022/11/16 07:01:09;;;;;;;343.67;122.68;;;;;;;;;;6252678;28;20052;-62
2022/11/16 07:04:10;;;;;;;351.58;120.85;;;;;;;;;;6253358;28;20045;-61
2022/11/16 07:07:11;;;;;;;341.20;121.25;;;;;;;;;;6254730;28;20048;-62
2022/11/16 07:10:12;;;;;;;328.83;113.95;;;;;;;;;;6250558;28;20195;-62
2022/11/16 07:13:13;;;;;;;312.55;114.28;;;;;;;;;;6254082;28;20707;-61
2022/11/16 07:16:14;;;;;;;325.63;114.07;;;;;;;;;;6254151;28;20059;-61
2022/11/16 07:19:14;;;;;;;321.77;116.90;;;;;;;;;;6252554;28;20041;-61
2022/11/16 07:22:15;;;;;;;305.00;110.15;;;;;;;;;;6252634;28;20057;-62
2022/11/16 07:25:15;;;;;;;309.52;107.45;;;;;;;;;;6251067;28;20555;-61
2022/11/16 07:28:16;;;;;;;304.38;110.55;;;;;;;;;;6250996;28;20081;-61
2022/11/16 07:31:17;;;;;;;290.90;101.88;;;;;;;;;;6253593;28;20045;-61
2022/11/16 07:34:17;;;;;;;267.13;98.97;;;;;;;;;;6267114;28;20049;-61
2022/11/16 07:37:18;;;;;;;273.40;96.93;;;;;;;;;;6256291;28;20103;-60
2022/11/16 07:40:19;;;;;;;277.00;96.78;;;;;;;;;;6248474;28;20128;-61
2022/11/16 07:43:19;;;;;;;272.65;94.20;;;;;;;;;;6251337;28;20101;-61
2022/11/16 07:46:22;;;;;;;275.83;98.88;;;;;;;;;;6252947;28;20065;-61
2022/11/16 07:49:22;;;;;;;;;;;;;;;;;;6251586;28;20109;-61
2022/11/16 07:52:23;;;;;;;238.32;81.72;;;;;;;;;;6253192;28;19924;-61
2022/11/16 07:55:25;;;;;;;246.90;88.25;;;;;;;;;;6252460;28;20046;-61
2022/11/16 07:58:26;;;;;;;;;;;;;;;;;;6251538;28;20068;-61
2022/11/16 08:01:27;;;;;;;214.23;73.57;;;;;;;;;;6250668;28;20661;-62
2022/11/16 08:04:27;;;;;;;212.32;76.28;;;;;;;;;;6251795;28;20049;-62
2022/11/16 08:07:28;;;;;;;214.70;78.70;;;;;;;;;;6252215;28;20049;-61
2022/11/16 08:10:30;;;;;;;203.38;70.15;;;;;;;;;;6251661;28;20132;-61
2022/11/16 08:13:33;;;;;;;207.27;72.60;;;;;;;;;;6251457;28;20699;-61
2022/11/16 08:16:34;;;;;;;192.57;67.60;;;;;;;;;;6249880;28;20111;-61
2022/11/16 08:19:35;;;;;;;203.93;70.38;;;;;;;;;;6249919;28;20057;-62
2022/11/16 08:22:36;;;;;;;213.20;71.27;;;;;;;;;;6249852;28;20053;-61
2022/11/16 08:25:36;;;;;;;199.07;70.60;;;;;;;;;;6252513;28;20052;-66
2022/11/16 08:28:37;;;;;;;197.07;69.43;;;;;;;;;;6250381;28;20049;-61
2022/11/16 08:31:37;;;;;;;195.13;69.45;;;;;;;;;;6252991;28;20115;-61
2022/11/16 08:34:38;;;;;;;164.20;59.25;;;;;;;;;;6251912;28;20532;-61
2022/11/16 08:37:38;;;;;;;177.85;59.58;;;;;;;;;;6249439;28;20373;-61
2022/11/16 08:40:39;;;;;;;163.68;54.28;;;;;;;;;;6250137;28;20099;-60
2022/11/16 08:43:40;;;;;;;173.93;64.00;;;;;;;;;;6251463;28;20502;-60
2022/11/16 08:46:41;;;;;;;172.07;58.85;;;;;;;;;;6251294;28;20084;-61
2022/11/16 08:49:41;;;;;;;164.60;58.45;;;;;;;;;;6251725;28;20061;-61
2022/11/16 08:52:42;;;;;;;167.57;55.63;;;;;;;;;;6249741;28;20053;-61
2022/11/16 08:55:43;;;;;;;156.40;54.00;;;;;;;;;;6252725;28;20048;-61
2022/11/16 08:58:45;;;;;;;161.10;51.30;;;;;;;;;;6247916;28;20056;-61
2022/11/16 09:01:46;;;;;;;;;;;;;;;;;;6255616;28;20075;-61
2022/11/16 09:04:46;;;;;;;159.27;51.65;;;;;;;;;;6268519;28;19928;-61
2022/11/16 09:07:47;;;;;;;151.45;50.28;;;;;;;;;;6264881;28;20048;-61
2022/11/16 09:10:48;;;;;;;163.05;57.88;;;;;;;;;;6250540;28;20487;-61
2022/11/16 09:13:49;;;;;;;158.40;50.15;;;;;;;;;;6251515;28;20389;-61
2022/11/16 09:16:51;;;;;;;;;;;;;;;;;;6250470;28;20086;-61
2022/11/16 09:19:51;;;;;;;144.50;46.55;;;;;;;;;;6249229;28;19920;-61
2022/11/16 09:22:52;;;;;;;148.95;48.28;;;;;;;;;;6251401;28;20052;-62
2022/11/16 09:25:53;;;;;;;137.18;44.20;;;;;;;;;;6251687;28;20168;-61
2022/11/16 09:28:59;;;;;;;141.30;45.30;;;;;;;;;;6249418;28;20047;-61
2022/11/16 09:31:59;;;;;;;146.50;47.05;;;;;;;;;;6250341;28;20334;-61
2022/11/16 09:35:00;;;;;;;140.73;45.72;;;;;;;;;;6249566;28;20041;-62
2022/11/16 09:38:00;;;;;;;145.98;47.20;;;;;;;;;;6247515;28;20050;-61
2022/11/16 09:41:14;;;;;;;135.68;47.80;;;;;;;;;;6249957;28;20040;-61
2022/11/16 09:44:23;;;;;;;142.80;46.97;;;;;;;;;;6250881;28;20063;-61
2022/11/16 09:47:48;;;;;;;147.55;43.65;;;;;;;;;;6247626;28;20053;-61
2022/11/16 09:50:58;;;;;;;129.60;40.92;;;;;;;;;;6248864;28;20095;-64
2022/11/16 09:54:04;;;;;;;127.88;41.30;;;;;;;;;;6247421;28;20053;-61
2022/11/16 09:57:09;;;;;;;132.85;42.85;;;;;;;;;;6246097;28;20643;-62
2022/11/16 10:00:16;;;;;;;130.05;44.22;;;;;;;;;;6247067;28;20070;-60
2022/11/16 10:03:17;;;;;;;128.38;42.53;;;;;;;;;;6264178;28;20476;-60
2022/11/16 10:06:24;;;;;;;133.05;43.75;;;;;;;;;;6254455;28;20144;-61
2022/11/16 10:09:26;;;;;;;128.50;41.47;;;;;;;;;;6248970;28;20056;-61
2022/11/16 10:12:36;;;;;;;132.13;40.80;;;;;;;;;;6246442;28;20045;-60
2022/11/16 10:16:03;;;;;;;121.82;41.50;;;;;;;;;;6246291;28;20103;-61
2022/11/16 10:19:28;;;;;;;124.55;39.45;;;;;;;;;;6249065;28;20369;-61
2022/11/16 10:22:47;;;;;;;137.10;42.22;;;;;;;;;;6247873;28;20499;-62
2022/11/16 10:25:56;;;;;;;129.77;39.25;;;;;;;;;;6245291;28;20060;-62
2022/11/16 10:29:00;;;;;;;122.22;39.55;;;;;;;;;;6245230;28;20482;-62
2022/11/16 10:32:04;;;;;;;120.38;40.53;;;;;;;;;;6250967;28;20055;-62
2022/11/16 10:35:16;;;;;;;125.72;41.58;;;;;;;;;;6253487;28;20502;-62
2022/11/16 10:38:20;;;;;;;123.07;39.90;;;;;;;;;;6254261;28;20045;-62
2022/11/16 10:41:24;;;;;;;123.57;39.67;;;;;;;;;;6252215;28;20072;-61
2022/11/16 10:44:34;;;;;;;129.98;41.25;;;;;;;;;;6252966;28;20053;-61
2022/11/16 10:47:41;;;;;;;130.65;41.50;;;;;;;;;;6252093;28;20487;-61
2022/11/16 10:50:47;;;;;;;125.85;43.53;;;;;;;;;;6250995;28;20045;-62
2022/11/16 10:53:48;;;;;;;133.10;43.33;;;;;;;;;;6252001;28;20056;-63
2022/11/16 10:57:07;;;;;;;131.88;42.05;;;;;;;;;;6253483;28;20048;-61
2022/11/16 11:00:10;;;;;;;130.30;43.53;;;;;;;;;;6249782;28;20424;-61
2022/11/16 11:03:11;;;;;;;135.27;41.97;;;;;;;;;;6244905;28;20056;-61
2022/11/16 11:06:12;;;;;;;127.70;39.45;;;;;;;;;;6251244;28;20041;-61
2022/11/16 11:09:23;;;;;;;122.32;39.08;;;;;;;;;;6254124;28;20047;-62
2022/11/16 11:12:37;;;;;;;128.65;38.90;;;;;;;;;;6251681;28;20516;-61
2022/11/16 11:15:41;;;;;;;140.38;40.88;;;;;;;;;;6253701;28;20041;-61
2022/11/16 11:18:41;;;;;;;146.57;42.00;;;;;;;;;;6253039;28;20101;-62
2022/11/16 11:21:43;;;;;;;148.70;39.25;;;;;;;;;;6251590;28;20049;-63
2022/11/16 11:24:47;;;;;;;133.03;38.10;;;;;;;;;;6260511;28;20041;-61
2022/11/16 11:27:49;;;;;;;133.55;37.88;;;;;;;;;;6253558;28;20521;-61
2022/11/16 11:31:02;;;;;;;139.10;36.22;;;;;;;;;;6252501;28;20041;-61
2022/11/16 11:34:21;;;;;;;130.00;36.40;;;;;;;;;;6250843;28;20385;-62
2022/11/16 11:37:32;;;;;;;140.32;39.10;;;;;;;;;;6256941;28;20052;-62
2022/11/16 11:40:33;;;;;;;110.13;35.10;;;;;;;;;;6252958;28;20055;-61
2022/11/16 11:43:33;;;;;;;126.53;37.83;;;;;;;;;;6248694;28;20313;-61
2022/11/16 11:46:36;;;;;;;125.18;35.58;;;;;;;;;;6251542;28;20078;-61
2022/11/16 11:49:41;;;;;;;132.48;36.65;;;;;;;;;;6253804;28;20523;-62
2022/11/16 11:52:53;;;;;;;122.90;36.92;;;;;;;;;;6254663;28;20094;-62
2022/11/16 11:55:58;;;;;;;135.40;38.13;;;;;;;;;;6249430;28;20045;-65
2022/11/16 11:59:01;;;;;;;135.45;36.42;;;;;;;;;;6252482;28;20168;-68
2022/11/16 12:02:27;;;;;;;136.30;36.50;;;;;;;;;;6251247;28;20470;-61
2022/11/16 12:05:55;;;;;;;127.07;37.33;;;;;;;;;;6264884;28;20136;-62
2022/11/16 12:09:32;;;;;;;126.15;35.13;;;;;;;;;;6251811;28;20470;-62
2022/11/16 12:13:09;;;;;;;135.68;39.70;;;;;;;;;;6248455;28;20389;-62
2022/11/16 12:16:46;;;;;;;151.75;42.20;;;;;;;;;;6245626;28;20033;-61
2022/11/16 12:20:31;;;;;;;151.68;45.45;;;;;;;;;;6252142;28;20045;-62
2022/11/16 12:23:43;;;;;;;177.98;48.42;;;;;;;;;;6160001;28;20213;-62
2022/11/16 12:26:44;;;;;;;168.07;47.70;;;;;;;;;;6163386;28;20046;-61
2022/11/16 12:30:08;;;;;;;131.20;41.97;;;;;;;;;;6252391;28;20634;-62
2022/11/16 12:33:25;;;;;;;143.40;41.67;;;;;;;;;;6252130;28;20155;-61
2022/11/16 12:36:28;;;;;;;144.60;45.15;;;;;;;;;;6251382;28;20053;-62
2022/11/16 12:40:02;;;;;;;137.30;42.33;;;;;;;;;;6259590;28;20067;-61
2022/11/16 12:43:27;;;;;;;98.38;33.88;;;;;;;;;;6233202;28;20046;-62
2022/11/16 12:46:49;;;;;;;64.57;24.83;;;;;;;;;;6252846;28;20135;-61
2022/11/16 12:50:06;;;;;;;70.90;28.23;;;;;;;;;;6251144;28;20048;-61
2022/11/16 12:53:13;;;;;;;60.33;22.42;;;;;;;;;;6249139;28;20562;-62
2022/11/16 12:56:36;;;;;;;73.85;25.25;;;;;;;;;;6250366;28;20041;-61
2022/11/16 12:59:39;;;;;;;;;;;;;;;;;;6251185;28;20053;-61
2022/11/16 13:02:57;;;;;;;59.72;23.98;;;;;;;;;;6251865;28;19921;-62
2022/11/16 13:06:02;;;;;;;52.90;21.92;;;;;;;;;;6251157;28;20431;-63
2022/11/16 13:09:11;;;;;;;53.78;21.70;;;;;;;;;;6250523;28;20049;-62
2022/11/16 13:12:16;;;;;;;69.97;26.05;;;;;;;;;;6250498;28;20045;-62
2022/11/16 13:15:19;;;;;;;65.28;24.08;;;;;;;;;;6267999;28;20048;-61
2022/11/16 13:18:22;;;;;;;62.13;23.70;;;;;;;;;;6250203;28;20053;-61
2022/11/16 13:21:25;;;;;;;;;;;;;;;;;;6250561;28;20057;-62
2022/11/16 13:24:47;;;;;;;77.32;28.73;;;;;;;;;;6250014;28;19937;-61
2022/11/16 13:28:25;;;;;;;81.63;28.03;;;;;;;;;;6250776;28;20081;-62
2022/11/16 13:31:33;;;;;;;83.75;29.45;;;;;;;;;;6234540;28;20299;-61
2022/11/16 13:34:37;;;;;;;77.72;28.67;;;;;;;;;;6249203;28;20053;-62
2022/11/16 13:37:38;;;;;;;49.33;21.48;;;;;;;;;;6250305;28;20107;-62
2022/11/16 13:40:39;;;;;;;54.50;22.17;;;;;;;;;;6248744;28;20539;-62
2022/11/16 13:43:47;;;;;;;53.72;22.10;;;;;;;;;;6249174;28;20195;-61
2022/11/16 13:46:49;;;;;;;53.40;22.20;;;;;;;;;;6250234;28;20080;-62
2022/11/16 13:49:53;;;;;;;53.25;22.83;;;;;;;;;;6249847;28;20056;-61
2022/11/16 13:53:01;;;;;;;51.60;21.58;;;;;;;;;;6249511;28;20045;-61
2022/11/16 13:56:04;;;;;;;49.08;23.17;;;;;;;;;;6251017;28;20037;-61
2022/11/16 13:59:14;;;;;;;54.47;23.02;;;;;;;;;;6250350;28;20106;-62
2022/11/16 14:02:35;;;;;;;79.85;30.30;;;;;;;;;;6248820;28;20045;-62
2022/11/16 14:05:40;;;;;;;53.25;22.60;;;;;;;;;;6249781;28;20458;-61
2022/11/16 14:08:47;;;;;;;46.75;21.25;;;;;;;;;;6249395;28;20437;-62
2022/11/16 14:11:47;;;;;;;43.63;21.30;;;;;;;;;;6247245;28;20055;-62
2022/11/16 14:15:02;;;;;;;47.97;21.05;;;;;;;;;;6246591;28;20057;-62
2022/11/16 14:18:08;;;;;;;42.25;18.55;;;;;;;;;;6247455;28;20084;-61
2022/11/16 14:21:15;;;;;;;41.83;17.33;;;;;;;;;;6250065;28;20063;-61
2022/11/16 14:24:29;;;;;;;36.20;16.48;;;;;;;;;;6246950;28;20144;-65
2022/11/16 14:27:47;;;;;;;35.10;15.77;;;;;;;;;;6246783;28;20562;-62
2022/11/16 14:30:59;;;;;;;36.30;15.52;;;;;;;;;;6245580;28;20111;-61
2022/11/16 14:34:00;;;;;;;;;;;;;;;;;;6251682;28;20050;-62
2022/11/16 14:37:02;;;;;;;36.90;17.30;;;;;;;;;;6252817;28;19936;-61
2022/11/16 14:40:13;;;;;;;43.45;20.58;;;;;;;;;;6248596;28;20052;-62
2022/11/16 14:43:19;;;;;;;47.80;20.85;;;;;;;;;;6251293;28;20053;-61
2022/11/16 14:46:24;;;;;;;45.85;22.48;;;;;;;;;;6254044;28;20076;-62
2022/11/16 14:49:26;;;;;;;46.65;22.38;;;;;;;;;;6252167;28;20045;-61
2022/11/16 14:52:43;;;;;;;49.90;22.60;;;;;;;;;;6247788;28;20167;-62
2022/11/16 14:55:45;;;;;;;49.00;24.55;;;;;;;;;;6254972;28;20591;-62
2022/11/16 14:59:01;;;;;;;52.63;25.97;;;;;;;;;;6253439;28;20053;-63
2022/11/16 15:02:18;;;;;;;63.65;31.75;;;;;;;;;;6251623;28;20053;-62
2022/11/16 15:05:21;;;;;;;64.18;28.50;;;;;;;;;;6254458;28;20491;-61
2022/11/16 15:08:29;;;;;;;76.90;31.85;;;;;;;;;;6252602;28;20549;-62
2022/11/16 15:14:55;;;;;;;63.72;27.23;;;;;;;;;;6252473;28;20052;-62
2022/11/16 15:17:58;;;;;;;62.88;29.52;;;;;;;;;;6255887;28;20075;-61
2022/11/16 15:20:59;;;;;;;58.35;27.27;;;;;;;;;;6256277;28;20510;-62
2022/11/16 15:23:59;;;;;;;57.22;25.95;;;;;;;;;;6255767;28;20045;-62
2022/11/16 15:27:23;;;;;;;56.88;26.77;;;;;;;;;;6262167;28;20056;-62
2022/11/16 15:30:36;;;;;;;64.57;28.83;;;;;;;;;;6263662;28;20052;-62
2022/11/16 15:33:41;;;;;;;64.93;26.63;;;;;;;;;;6260694;28;20049;-62
2022/11/16 15:36:42;;;;;;;62.78;26.75;;;;;;;;;;6262672;28;20055;-62
2022/11/16 15:39:42;;;;;;;75.53;29.67;;;;;;;;;;6263725;28;20048;-63
2022/11/16 15:42:43;;;;;;;73.65;26.40;;;;;;;;;;6263081;28;20123;-63
2022/11/16 15:45:45;;;;;;;48.00;21.17;;;;;;;;;;6265626;28;20044;-61
2022/11/16 15:48:46;;;;;;;52.03;21.95;;;;;;;;;;6264898;28;20060;-61
2022/11/16 15:51:47;;;;;;;35.88;18.27;;;;;;;;;;6263135;28;20048;-62
2022/11/16 15:55:05;;;;;;;45.25;20.42;;;;;;;;;;6264658;28;20052;-62
2022/11/16 15:58:12;;;;;;;49.08;24.05;;;;;;;;;;6267878;28;20052;-62
2022/11/16 16:01:14;;;;;;;53.70;24.27;;;;;;;;;;6267936;28;20076;-61
2022/11/16 16:04:16;;;;;;;61.20;24.93;;;;;;;;;;6269628;28;20053;-63
2022/11/16 16:07:40;;;;;;;41.97;18.02;;;;;;;;;;6267758;28;20296;-61
2022/11/16 16:10:41;;;;;;;45.92;20.08;;;;;;;;;;6267504;28;20072;-62
2022/11/16 16:13:55;;;;;;;46.58;20.27;;;;;;;;;;6268319;28;20087;-62
2022/11/16 16:16:57;;;;;;;42.95;18.55;;;;;;;;;;6268606;28;20148;-61
2022/11/16 16:19:59;;;;;;;48.33;18.30;;;;;;;;;;6267515;28;20041;-61
2022/11/16 16:23:15;;;;;;;41.10;18.90;;;;;;;;;;6261238;28;21284;-63
2022/11/16 16:26:16;;;;;;;40.13;18.27;;;;;;;;;;6269941;28;20501;-63
2022/11/16 16:29:17;;;;;;;49.17;24.45;;;;;;;;;;6267421;28;20049;-63
2022/11/16 16:32:28;;;;;;;55.22;22.83;;;;;;;;;;6266206;28;20053;-63
2022/11/16 16:35:29;;;;;;;55.85;24.60;;;;;;;;;;6268733;28;20571;-61
2022/11/16 16:38:30;;;;;;;56.63;21.73;;;;;;;;;;6267455;28;20071;-61
2022/11/16 16:41:30;;;;;;;55.17;21.85;;;;;;;;;;6262999;28;20056;-62
2022/11/16 16:44:31;;;;;;;56.22;26.55;;;;;;;;;;6267767;28;20503;-62
2022/11/16 16:47:32;;;;;;;62.63;25.95;;;;;;;;;;6265905;28;20052;-62
2022/11/16 16:50:34;;;;;;;57.35;25.00;;;;;;;;;;6262728;28;20921;-61
2022/11/16 16:53:35;;;;;;;69.13;26.88;;;;;;;;;;6260461;28;20144;-63
2022/11/16 16:56:35;;;;;;;44.05;17.35;;;;;;;;;;6257235;28;20056;-62
2022/11/16 16:59:36;;;;;;;35.05;15.38;;;;;;;;;;6254746;28;20055;-61
2022/11/16 17:02:37;;;;;;;49.38;21.80;;;;;;;;;;6254075;28;20045;-62
2022/11/16 17:05:37;;;;;;;52.42;20.63;;;;;;;;;;6255399;28;20064;-62
2022/11/16 17:08:38;;;;;;;51.75;21.85;;;;;;;;;;6256903;28;20095;-63
2022/11/16 17:11:39;;;;;;;72.68;29.60;;;;;;;;;;6255063;28;20060;-62
2022/11/16 17:14:39;;;;;;;72.43;28.50;;;;;;;;;;6256460;28;20056;-62
2022/11/16 17:17:41;;;;;;;80.25;28.83;;;;;;;;;;6257909;28;20052;-61
2022/11/16 17:20:42;;;;;;;55.58;20.40;;;;;;;;;;6258188;28;21258;-61
2022/11/16 17:23:42;;;;;;;55.75;20.25;;;;;;;;;;6259636;28;20052;-63
2022/11/16 17:26:47;;;;;;;66.38;23.88;;;;;;;;;;6265509;28;20182;-62
2022/11/16 17:29:47;;;;;;;63.67;22.60;;;;;;;;;;6269318;28;21052;-62
2022/11/16 17:32:48;;;;;;;56.90;20.38;;;;;;;;;;6265413;28;20049;-62
2022/11/16 17:35:55;;;;;;;59.05;20.92;;;;;;;;;;6265675;28;20887;-62
2022/11/16 17:38:57;;;;;;;56.63;20.40;;;;;;;;;;6267267;28;20094;-61
2022/11/16 17:41:57;;;;;;;57.40;19.02;;;;;;;;;;6266451;28;20460;-62
2022/11/16 17:44:58;;;;;;;51.25;19.02;;;;;;;;;;6262451;28;20049;-62
2022/11/16 17:47:58;;;;;;;50.45;18.77;;;;;;;;;;6271365;28;20048;-63
2022/11/16 17:50:59;;;;;;;50.05;19.92;;;;;;;;;;6265547;28;20136;-62
2022/11/16 17:54:00;;;;;;;53.20;20.20;;;;;;;;;;6261235;28;21434;-62
2022/11/16 17:57:00;;;;;;;56.55;21.85;;;;;;;;;;6264220;28;20587;-62
2022/11/16 18:00:01;;;;;;;54.70;20.58;;;;;;;;;;6264916;28;20067;-62
2022/11/16 18:03:02;;;;;;;49.97;21.92;;;;;;;;;;6272942;28;20056;-64
2022/11/16 18:06:09;;;;;;;54.28;21.33;;;;;;;;;;6265957;28;20507;-62
2022/11/16 18:09:10;;;;;;;45.75;17.75;;;;;;;;;;6263530;28;20055;-64
2022/11/16 18:12:11;;;;;;;46.30;17.65;;;;;;;;;;6261868;28;20566;-61
2022/11/16 18:15:11;;;;;;;41.00;15.32;;;;;;;;;;6270091;28;20140;-63
2022/11/16 18:18:12;;;;;;;32.78;13.60;;;;;;;;;;6265222;28;20065;-63
2022/11/16 18:21:14;;;;;;;41.22;14.88;;;;;;;;;;6259591;28;20517;-62
2022/11/16 18:24:15;;;;;;;39.95;16.58;;;;;;;;;;6265017;28;20712;-64